sensor_id;sensor_type;location;lat;lon;timestamp;P1;durP1;ratioP1;P2;durP2;ratioP2
30133;SDS011;16946;49.984;10.672;2023-08-06T00:00:07;3.60;;;1.90;;
30133;SDS011;16946;49.984;10.672;2023-08-06T00:00:38;2.50;;;2.30;;
30133;SDS011;16946;49.984;10.672;2023-08-06T00:01:09;2.40;;;2.20;;
30133;SDS011;16946;49.984;10.672;2023-08-06T00:01:39;2.80;;;2.20;;
30133;SDS011;16946;49.984;10.672;2023-08-06T00:02:10;3.17;;;2.20;;
30133;SDS011;16946;49.984;10.672;2023-08-06T00:02:40;2.60;;;2.00;;
30133;SDS011;16946;49.984;10.672;2023-08-06T00:03:11;2.50;;;2.17;;
30133;SDS011;16946;49.984;10.672;2023-08-06T00:03:41;3.97;;;2.30;;
30133;SDS011;16946;49.984;10.672;2023-08-06T00:04:12;2.43;;;2.10;;
30133;SDS011;16946;49.984;10.672;2023-08-06T00:04:43;3.30;;;2.57;;
30133;SDS011;16946;49.984;10.672;2023-08-06T00:05:13;3.60;;;2.20;;
30133;SDS011;16946;49.984;10.672;2023-08-06T00:05:47;2.40;;;2.20;;
30133;SDS011;16946;49.984;10.672;2023-08-06T00:06:18;2.50;;;2.30;;
30133;SDS011;16946;49.984;10.672;2023-08-06T00:06:48;3.83;;;2.73;;
30133;SDS011;16946;49.984;10.672;2023-08-06T00:07:19;3.10;;;2.10;;
30133;SDS011;16946;49.984;10.672;2023-08-06T00:07:50;2.20;;;2.00;;
30133;SDS011;16946;49.984;10.672;2023-08-06T00:08:21;2.40;;;2.20;;
30133;SDS011;16946;49.984;10.672;2023-08-06T00:08:51;5.40;;;2.57;;
30133;SDS011;16946;49.984;10.672;2023-08-06T00:09:22;6.00;;;2.50;;
30133;SDS011;16946;49.984;10.672;2023-08-06T00:09:52;4.47;;;2.17;;
30133;SDS011;16946;49.984;10.672;2023-08-06T00:10:23;4.03;;;2.20;;
30133;SDS011;16946;49.984;10.672;2023-08-06T00:10:53;4.27;;;2.47;;
30133;SDS011;16946;49.984;10.672;2023-08-06T00:11:24;2.83;;;2.60;;
30133;SDS011;16946;49.984;10.672;2023-08-06T00:11:54;2.50;;;2.10;;
30133;SDS011;16946;49.984;10.672;2023-08-06T00:12:25;3.40;;;2.20;;
30133;SDS011;16946;49.984;10.672;2023-08-06T00:12:55;3.80;;;1.90;;
30133;SDS011;16946;49.984;10.672;2023-08-06T00:13:26;4.33;;;2.20;;
30133;SDS011;16946;49.984;10.672;2023-08-06T00:13:57;2.50;;;2.30;;
30133;SDS011;16946;49.984;10.672;2023-08-06T00:14:27;3.03;;;2.67;;
30133;SDS011;16946;49.984;10.672;2023-08-06T00:14:58;3.03;;;2.20;;
30133;SDS011;16946;49.984;10.672;2023-08-06T00:15:28;2.27;;;2.00;;
30133;SDS011;16946;49.984;10.672;2023-08-06T00:16:11;4.87;;;2.10;;
30133;SDS011;16946;49.984;10.672;2023-08-06T00:16:43;4.95;;;2.22;;
30133;SDS011;16946;49.984;10.672;2023-08-06T00:17:15;2.60;;;2.33;;
30133;SDS011;16946;49.984;10.672;2023-08-06T00:17:45;2.30;;;2.10;;
30133;SDS011;16946;49.984;10.672;2023-08-06T00:18:16;4.00;;;2.20;;
30133;SDS011;16946;49.984;10.672;2023-08-06T00:18:46;3.10;;;2.20;;
30133;SDS011;16946;49.984;10.672;2023-08-06T00:19:17;2.30;;;1.97;;
30133;SDS011;16946;49.984;10.672;2023-08-06T00:19:47;3.27;;;2.27;;
30133;SDS011;16946;49.984;10.672;2023-08-06T00:20:18;2.40;;;2.07;;
30133;SDS011;16946;49.984;10.672;2023-08-06T00:20:49;1.97;;;1.77;;
30133;SDS011;16946;49.984;10.672;2023-08-06T00:21:19;3.90;;;2.67;;
30133;SDS011;16946;49.984;10.672;2023-08-06T00:21:50;5.93;;;3.03;;
30133;SDS011;16946;49.984;10.672;2023-08-06T00:22:20;2.33;;;2.17;;
30133;SDS011;16946;49.984;10.672;2023-08-06T00:22:51;3.23;;;2.40;;
30133;SDS011;16946;49.984;10.672;2023-08-06T00:23:21;4.77;;;2.17;;
30133;SDS011;16946;49.984;10.672;2023-08-06T00:23:52;7.70;;;2.30;;
30133;SDS011;16946;49.984;10.672;2023-08-06T00:24:23;3.10;;;2.37;;
30133;SDS011;16946;49.984;10.672;2023-08-06T00:24:53;2.60;;;2.40;;
30133;SDS011;16946;49.984;10.672;2023-08-06T00:25:27;2.95;;;2.65;;
30133;SDS011;16946;49.984;10.672;2023-08-06T00:25:58;3.40;;;2.40;;
30133;SDS011;16946;49.984;10.672;2023-08-06T00:26:28;2.47;;;2.20;;
30133;SDS011;16946;49.984;10.672;2023-08-06T00:26:59;2.50;;;2.10;;
30133;SDS011;16946;49.984;10.672;2023-08-06T00:27:30;4.07;;;2.60;;
30133;SDS011;16946;49.984;10.672;2023-08-06T00:28:00;5.17;;;2.53;;
30133;SDS011;16946;49.984;10.672;2023-08-06T00:28:31;3.93;;;2.40;;
30133;SDS011;16946;49.984;10.672;2023-08-06T00:29:01;4.60;;;2.73;;
30133;SDS011;16946;49.984;10.672;2023-08-06T00:29:32;3.47;;;2.60;;
30133;SDS011;16946;49.984;10.672;2023-08-06T00:30:03;3.53;;;2.17;;
30133;SDS011;16946;49.984;10.672;2023-08-06T00:30:33;3.13;;;2.30;;
30133;SDS011;16946;49.984;10.672;2023-08-06T00:31:04;3.43;;;2.20;;
30133;SDS011;16946;49.984;10.672;2023-08-06T00:31:34;3.07;;;2.30;;
30133;SDS011;16946;49.984;10.672;2023-08-06T00:32:05;3.53;;;2.63;;
30133;SDS011;16946;49.984;10.672;2023-08-06T00:32:36;4.80;;;2.77;;
30133;SDS011;16946;49.984;10.672;2023-08-06T00:33:06;4.30;;;2.80;;
30133;SDS011;16946;49.984;10.672;2023-08-06T00:33:37;2.20;;;2.00;;
30133;SDS011;16946;49.984;10.672;2023-08-06T00:34:07;4.00;;;2.67;;
30133;SDS011;16946;49.984;10.672;2023-08-06T00:34:38;6.20;;;3.10;;
30133;SDS011;16946;49.984;10.672;2023-08-06T00:35:08;4.07;;;2.93;;
30133;SDS011;16946;49.984;10.672;2023-08-06T00:35:39;4.63;;;2.60;;
30133;SDS011;16946;49.984;10.672;2023-08-06T00:36:10;2.33;;;2.13;;
30133;SDS011;16946;49.984;10.672;2023-08-06T00:36:40;3.77;;;2.60;;
30133;SDS011;16946;49.984;10.672;2023-08-06T00:37:11;3.80;;;2.80;;
30133;SDS011;16946;49.984;10.672;2023-08-06T00:37:41;4.13;;;2.60;;
30133;SDS011;16946;49.984;10.672;2023-08-06T00:38:12;2.90;;;2.67;;
30133;SDS011;16946;49.984;10.672;2023-08-06T00:38:43;2.50;;;2.30;;
30133;SDS011;16946;49.984;10.672;2023-08-06T00:39:13;4.17;;;2.90;;
30133;SDS011;16946;49.984;10.672;2023-08-06T00:39:44;2.70;;;2.40;;
30133;SDS011;16946;49.984;10.672;2023-08-06T00:40:14;6.60;;;2.90;;
30133;SDS011;16946;49.984;10.672;2023-08-06T00:40:45;3.23;;;2.37;;
30133;SDS011;16946;49.984;10.672;2023-08-06T00:41:16;3.90;;;2.53;;
30133;SDS011;16946;49.984;10.672;2023-08-06T00:41:46;7.30;;;3.00;;
30133;SDS011;16946;49.984;10.672;2023-08-06T00:42:17;2.57;;;2.33;;
30133;SDS011;16946;49.984;10.672;2023-08-06T00:42:50;4.47;;;2.83;;
30133;SDS011;16946;49.984;10.672;2023-08-06T00:43:21;3.03;;;2.73;;
30133;SDS011;16946;49.984;10.672;2023-08-06T00:43:51;7.37;;;2.80;;
30133;SDS011;16946;49.984;10.672;2023-08-06T00:44:22;3.70;;;2.73;;
30133;SDS011;16946;49.984;10.672;2023-08-06T00:44:52;6.40;;;3.43;;
30133;SDS011;16946;49.984;10.672;2023-08-06T00:45:23;3.70;;;2.80;;
30133;SDS011;16946;49.984;10.672;2023-08-06T00:45:54;3.95;;;2.67;;
30133;SDS011;16946;49.984;10.672;2023-08-06T00:46:26;6.30;;;2.93;;
30133;SDS011;16946;49.984;10.672;2023-08-06T00:46:59;3.33;;;2.70;;
30133;SDS011;16946;49.984;10.672;2023-08-06T00:47:31;6.10;;;3.00;;
30133;SDS011;16946;49.984;10.672;2023-08-06T00:48:02;2.60;;;2.40;;
30133;SDS011;16946;49.984;10.672;2023-08-06T00:48:34;3.58;;;2.90;;
30133;SDS011;16946;49.984;10.672;2023-08-06T00:49:05;3.00;;;2.60;;
30133;SDS011;16946;49.984;10.672;2023-08-06T00:49:36;3.93;;;2.53;;
30133;SDS011;16946;49.984;10.672;2023-08-06T00:50:07;3.33;;;3.03;;
30133;SDS011;16946;49.984;10.672;2023-08-06T00:50:38;4.70;;;2.67;;
30133;SDS011;16946;49.984;10.672;2023-08-06T00:51:09;3.17;;;2.87;;
30133;SDS011;16946;49.984;10.672;2023-08-06T00:51:41;4.53;;;2.78;;
30133;SDS011;16946;49.984;10.672;2023-08-06T00:52:13;5.28;;;2.75;;
30133;SDS011;16946;49.984;10.672;2023-08-06T00:52:44;9.30;;;2.70;;
30133;SDS011;16946;49.984;10.672;2023-08-06T00:53:14;5.23;;;2.60;;
30133;SDS011;16946;49.984;10.672;2023-08-06T00:53:45;3.33;;;2.67;;
30133;SDS011;16946;49.984;10.672;2023-08-06T00:54:17;7.65;;;2.83;;
30133;SDS011;16946;49.984;10.672;2023-08-06T00:54:47;3.20;;;2.83;;
30133;SDS011;16946;49.984;10.672;2023-08-06T00:55:18;3.63;;;2.40;;
30133;SDS011;16946;49.984;10.672;2023-08-06T00:55:49;5.20;;;2.50;;
30133;SDS011;16946;49.984;10.672;2023-08-06T00:56:21;4.53;;;2.60;;
30133;SDS011;16946;49.984;10.672;2023-08-06T00:56:51;2.80;;;2.53;;
30133;SDS011;16946;49.984;10.672;2023-08-06T00:57:22;3.33;;;2.60;;
30133;SDS011;16946;49.984;10.672;2023-08-06T00:57:56;3.55;;;2.38;;
30133;SDS011;16946;49.984;10.672;2023-08-06T00:58:27;5.95;;;2.75;;
30133;SDS011;16946;49.984;10.672;2023-08-06T00:58:58;3.47;;;2.90;;
30133;SDS011;16946;49.984;10.672;2023-08-06T00:59:28;7.00;;;2.90;;
30133;SDS011;16946;49.984;10.672;2023-08-06T01:00:01;6.35;;;3.20;;
30133;SDS011;16946;49.984;10.672;2023-08-06T01:00:32;5.50;;;3.08;;
30133;SDS011;16946;49.984;10.672;2023-08-06T01:01:02;6.37;;;2.60;;
30133;SDS011;16946;49.984;10.672;2023-08-06T01:01:33;4.20;;;3.30;;
30133;SDS011;16946;49.984;10.672;2023-08-06T01:02:03;5.90;;;3.17;;
30133;SDS011;16946;49.984;10.672;2023-08-06T01:02:34;5.47;;;3.20;;
30133;SDS011;16946;49.984;10.672;2023-08-06T01:03:05;4.10;;;3.20;;
30133;SDS011;16946;49.984;10.672;2023-08-06T01:03:35;5.37;;;3.30;;
30133;SDS011;16946;49.984;10.672;2023-08-06T01:04:06;4.77;;;3.57;;
30133;SDS011;16946;49.984;10.672;2023-08-06T01:04:37;4.25;;;2.97;;
30133;SDS011;16946;49.984;10.672;2023-08-06T01:05:08;4.07;;;3.33;;
30133;SDS011;16946;49.984;10.672;2023-08-06T01:05:38;5.03;;;3.63;;
30133;SDS011;16946;49.984;10.672;2023-08-06T01:06:09;5.20;;;3.40;;
30133;SDS011;16946;49.984;10.672;2023-08-06T01:06:51;5.30;;;3.60;;
30133;SDS011;16946;49.984;10.672;2023-08-06T01:08:29;3.90;;;3.08;;
30133;SDS011;16946;49.984;10.672;2023-08-06T01:09:01;5.20;;;3.25;;
30133;SDS011;16946;49.984;10.672;2023-08-06T01:09:56;3.88;;;3.15;;
30133;SDS011;16946;49.984;10.672;2023-08-06T01:10:55;4.53;;;3.60;;
30133;SDS011;16946;49.984;10.672;2023-08-06T01:11:51;7.18;;;3.10;;
30133;SDS011;16946;49.984;10.672;2023-08-06T01:13:24;4.65;;;3.42;;
30133;SDS011;16946;49.984;10.672;2023-08-06T01:14:08;3.97;;;3.50;;
30133;SDS011;16946;49.984;10.672;2023-08-06T01:15:26;4.68;;;3.22;;
30133;SDS011;16946;49.984;10.672;2023-08-06T01:16:02;5.10;;;3.13;;
30133;SDS011;16946;49.984;10.672;2023-08-06T01:16:35;3.10;;;2.78;;
30133;SDS011;16946;49.984;10.672;2023-08-06T01:17:06;4.05;;;3.10;;
30133;SDS011;16946;49.984;10.672;2023-08-06T01:17:38;2.85;;;2.53;;
30133;SDS011;16946;49.984;10.672;2023-08-06T01:18:10;3.08;;;2.72;;
30133;SDS011;16946;49.984;10.672;2023-08-06T01:18:41;8.37;;;3.00;;
30133;SDS011;16946;49.984;10.672;2023-08-06T01:19:16;2.55;;;2.33;;
30133;SDS011;16946;49.984;10.672;2023-08-06T01:19:48;3.08;;;2.78;;
30133;SDS011;16946;49.984;10.672;2023-08-06T01:20:18;3.37;;;2.70;;
30133;SDS011;16946;49.984;10.672;2023-08-06T01:20:49;3.40;;;2.70;;
30133;SDS011;16946;49.984;10.672;2023-08-06T01:21:20;3.53;;;2.90;;
30133;SDS011;16946;49.984;10.672;2023-08-06T01:21:50;3.17;;;2.87;;
30133;SDS011;16946;49.984;10.672;2023-08-06T01:22:21;4.57;;;2.83;;
30133;SDS011;16946;49.984;10.672;2023-08-06T01:22:51;3.93;;;2.30;;
30133;SDS011;16946;49.984;10.672;2023-08-06T01:23:22;2.83;;;2.57;;
30133;SDS011;16946;49.984;10.672;2023-08-06T01:23:53;3.70;;;2.72;;
30133;SDS011;16946;49.984;10.672;2023-08-06T01:24:24;4.23;;;2.77;;
30133;SDS011;16946;49.984;10.672;2023-08-06T01:24:54;3.13;;;2.83;;
30133;SDS011;16946;49.984;10.672;2023-08-06T01:26:33;4.63;;;2.75;;
30133;SDS011;16946;49.984;10.672;2023-08-06T01:27:11;5.72;;;2.90;;
30133;SDS011;16946;49.984;10.672;2023-08-06T01:28:06;3.35;;;2.90;;
30133;SDS011;16946;49.984;10.672;2023-08-06T01:28:52;4.05;;;3.53;;
30133;SDS011;16946;49.984;10.672;2023-08-06T01:29:34;3.20;;;2.90;;
30133;SDS011;16946;49.984;10.672;2023-08-06T01:30:12;5.57;;;2.83;;
30133;SDS011;16946;49.984;10.672;2023-08-06T01:30:47;3.63;;;2.78;;
30133;SDS011;16946;49.984;10.672;2023-08-06T01:31:21;4.63;;;3.53;;
30133;SDS011;16946;49.984;10.672;2023-08-06T01:31:56;4.45;;;3.22;;
30133;SDS011;16946;49.984;10.672;2023-08-06T01:32:29;5.32;;;3.70;;
30133;SDS011;16946;49.984;10.672;2023-08-06T01:33:03;4.50;;;3.22;;
30133;SDS011;16946;49.984;10.672;2023-08-06T01:33:35;5.38;;;3.13;;
30133;SDS011;16946;49.984;10.672;2023-08-06T01:34:13;4.45;;;2.50;;
30133;SDS011;16946;49.984;10.672;2023-08-06T01:34:53;2.90;;;2.40;;
30133;SDS011;16946;49.984;10.672;2023-08-06T01:35:25;3.75;;;2.88;;
30133;SDS011;16946;49.984;10.672;2023-08-06T01:35:58;6.30;;;3.08;;
30133;SDS011;16946;49.984;10.672;2023-08-06T01:36:30;3.03;;;2.72;;
30133;SDS011;16946;49.984;10.672;2023-08-06T01:37:01;3.67;;;2.40;;
30133;SDS011;16946;49.984;10.672;2023-08-06T01:37:32;8.63;;;3.10;;
30133;SDS011;16946;49.984;10.672;2023-08-06T01:38:03;6.03;;;3.22;;
30133;SDS011;16946;49.984;10.672;2023-08-06T01:38:34;3.33;;;2.97;;
30133;SDS011;16946;49.984;10.672;2023-08-06T01:39:04;5.60;;;3.10;;
30133;SDS011;16946;49.984;10.672;2023-08-06T01:39:35;3.83;;;3.30;;
30133;SDS011;16946;49.984;10.672;2023-08-06T01:40:09;4.93;;;3.20;;
30133;SDS011;16946;49.984;10.672;2023-08-06T01:40:43;6.35;;;3.35;;
30133;SDS011;16946;49.984;10.672;2023-08-06T01:41:14;5.20;;;3.03;;
30133;SDS011;16946;49.984;10.672;2023-08-06T01:41:45;4.40;;;2.80;;
30133;SDS011;16946;49.984;10.672;2023-08-06T01:42:15;6.30;;;3.30;;
30133;SDS011;16946;49.984;10.672;2023-08-06T01:42:46;4.43;;;2.70;;
30133;SDS011;16946;49.984;10.672;2023-08-06T01:43:16;5.13;;;3.30;;
30133;SDS011;16946;49.984;10.672;2023-08-06T01:43:47;3.60;;;3.13;;
30133;SDS011;16946;49.984;10.672;2023-08-06T01:44:17;4.30;;;3.27;;
30133;SDS011;16946;49.984;10.672;2023-08-06T01:44:48;3.97;;;3.10;;
30133;SDS011;16946;49.984;10.672;2023-08-06T01:45:19;6.90;;;3.57;;
30133;SDS011;16946;49.984;10.672;2023-08-06T01:45:49;4.60;;;3.10;;
30133;SDS011;16946;49.984;10.672;2023-08-06T01:46:20;4.43;;;2.93;;
30133;SDS011;16946;49.984;10.672;2023-08-06T01:46:50;3.83;;;3.10;;
30133;SDS011;16946;49.984;10.672;2023-08-06T01:47:21;3.50;;;3.20;;
30133;SDS011;16946;49.984;10.672;2023-08-06T01:47:51;3.37;;;3.07;;
30133;SDS011;16946;49.984;10.672;2023-08-06T01:48:22;4.90;;;3.43;;
30133;SDS011;16946;49.984;10.672;2023-08-06T01:48:52;5.63;;;3.30;;
30133;SDS011;16946;49.984;10.672;2023-08-06T01:49:23;4.07;;;3.20;;
30133;SDS011;16946;49.984;10.672;2023-08-06T01:49:54;3.63;;;3.30;;
30133;SDS011;16946;49.984;10.672;2023-08-06T01:50:24;4.73;;;3.20;;
30133;SDS011;16946;49.984;10.672;2023-08-06T01:50:55;4.13;;;3.27;;
30133;SDS011;16946;49.984;10.672;2023-08-06T01:51:25;5.73;;;3.37;;
30133;SDS011;16946;49.984;10.672;2023-08-06T01:51:56;4.40;;;3.57;;
30133;SDS011;16946;49.984;10.672;2023-08-06T01:52:26;5.40;;;3.10;;
30133;SDS011;16946;49.984;10.672;2023-08-06T01:52:57;3.30;;;3.07;;
30133;SDS011;16946;49.984;10.672;2023-08-06T01:53:28;5.70;;;3.53;;
30133;SDS011;16946;49.984;10.672;2023-08-06T01:53:58;3.30;;;2.67;;
30133;SDS011;16946;49.984;10.672;2023-08-06T01:54:29;3.90;;;3.20;;
30133;SDS011;16946;49.984;10.672;2023-08-06T01:54:59;3.80;;;2.77;;
30133;SDS011;16946;49.984;10.672;2023-08-06T01:55:30;5.20;;;2.90;;
30133;SDS011;16946;49.984;10.672;2023-08-06T01:56:00;3.23;;;2.87;;
30133;SDS011;16946;49.984;10.672;2023-08-06T01:56:31;4.17;;;3.40;;
30133;SDS011;16946;49.984;10.672;2023-08-06T01:57:02;3.50;;;2.40;;
30133;SDS011;16946;49.984;10.672;2023-08-06T01:57:33;4.07;;;2.80;;
30133;SDS011;16946;49.984;10.672;2023-08-06T01:58:03;3.97;;;3.23;;
30133;SDS011;16946;49.984;10.672;2023-08-06T01:58:34;4.27;;;2.90;;
30133;SDS011;16946;49.984;10.672;2023-08-06T01:59:04;7.27;;;3.10;;
30133;SDS011;16946;49.984;10.672;2023-08-06T01:59:35;4.53;;;3.00;;
30133;SDS011;16946;49.984;10.672;2023-08-06T02:00:06;3.20;;;2.90;;
30133;SDS011;16946;49.984;10.672;2023-08-06T02:00:37;3.53;;;2.75;;
30133;SDS011;16946;49.984;10.672;2023-08-06T02:01:07;4.43;;;2.43;;
30133;SDS011;16946;49.984;10.672;2023-08-06T02:01:38;4.77;;;2.83;;
30133;SDS011;16946;49.984;10.672;2023-08-06T02:02:08;3.27;;;2.67;;
30133;SDS011;16946;49.984;10.672;2023-08-06T02:02:39;3.67;;;2.90;;
30133;SDS011;16946;49.984;10.672;2023-08-06T02:03:11;3.03;;;2.72;;
30133;SDS011;16946;49.984;10.672;2023-08-06T02:03:41;4.17;;;2.67;;
30133;SDS011;16946;49.984;10.672;2023-08-06T02:04:12;3.70;;;2.63;;
30133;SDS011;16946;49.984;10.672;2023-08-06T02:04:42;4.10;;;3.10;;
30133;SDS011;16946;49.984;10.672;2023-08-06T02:05:13;3.27;;;2.60;;
30133;SDS011;16946;49.984;10.672;2023-08-06T02:05:43;4.10;;;3.40;;
30133;SDS011;16946;49.984;10.672;2023-08-06T02:06:15;3.80;;;3.22;;
30133;SDS011;16946;49.984;10.672;2023-08-06T02:06:46;8.17;;;3.43;;
30133;SDS011;16946;49.984;10.672;2023-08-06T02:07:17;3.13;;;2.83;;
30133;SDS011;16946;49.984;10.672;2023-08-06T02:07:47;3.53;;;3.03;;
30133;SDS011;16946;49.984;10.672;2023-08-06T02:08:18;3.60;;;2.60;;
30133;SDS011;16946;49.984;10.672;2023-08-06T02:08:49;6.68;;;3.20;;
30133;SDS011;16946;49.984;10.672;2023-08-06T02:09:20;3.30;;;2.97;;
30133;SDS011;16946;49.984;10.672;2023-08-06T02:09:50;3.47;;;3.10;;
30133;SDS011;16946;49.984;10.672;2023-08-06T02:10:21;4.50;;;3.23;;
30133;SDS011;16946;49.984;10.672;2023-08-06T02:10:51;2.87;;;2.60;;
30133;SDS011;16946;49.984;10.672;2023-08-06T02:11:23;3.22;;;2.65;;
30133;SDS011;16946;49.984;10.672;2023-08-06T02:11:54;3.67;;;2.87;;
30133;SDS011;16946;49.984;10.672;2023-08-06T02:12:24;3.17;;;2.67;;
30133;SDS011;16946;49.984;10.672;2023-08-06T02:12:55;4.97;;;2.97;;
30133;SDS011;16946;49.984;10.672;2023-08-06T02:13:25;5.27;;;2.83;;
30133;SDS011;16946;49.984;10.672;2023-08-06T02:13:56;2.90;;;2.70;;
30133;SDS011;16946;49.984;10.672;2023-08-06T02:14:26;3.23;;;2.60;;
30133;SDS011;16946;49.984;10.672;2023-08-06T02:14:57;2.70;;;2.50;;
30133;SDS011;16946;49.984;10.672;2023-08-06T02:15:28;3.40;;;3.10;;
30133;SDS011;16946;49.984;10.672;2023-08-06T02:15:58;4.53;;;2.77;;
30133;SDS011;16946;49.984;10.672;2023-08-06T02:16:29;5.23;;;2.93;;
30133;SDS011;16946;49.984;10.672;2023-08-06T02:16:59;3.93;;;2.63;;
30133;SDS011;16946;49.984;10.672;2023-08-06T02:17:30;2.87;;;2.40;;
30133;SDS011;16946;49.984;10.672;2023-08-06T02:18:00;4.23;;;2.40;;
30133;SDS011;16946;49.984;10.672;2023-08-06T02:18:31;2.80;;;2.60;;
30133;SDS011;16946;49.984;10.672;2023-08-06T02:19:01;3.27;;;2.97;;
30133;SDS011;16946;49.984;10.672;2023-08-06T02:19:32;7.50;;;3.23;;
30133;SDS011;16946;49.984;10.672;2023-08-06T02:20:02;4.13;;;3.40;;
30133;SDS011;16946;49.984;10.672;2023-08-06T02:20:33;3.57;;;2.50;;
30133;SDS011;16946;49.984;10.672;2023-08-06T02:21:04;8.57;;;2.60;;
30133;SDS011;16946;49.984;10.672;2023-08-06T02:21:34;3.30;;;2.60;;
30133;SDS011;16946;49.984;10.672;2023-08-06T02:22:05;3.40;;;2.10;;
30133;SDS011;16946;49.984;10.672;2023-08-06T02:22:35;2.67;;;2.40;;
30133;SDS011;16946;49.984;10.672;2023-08-06T02:23:06;2.87;;;2.63;;
30133;SDS011;16946;49.984;10.672;2023-08-06T02:23:36;3.37;;;2.80;;
30133;SDS011;16946;49.984;10.672;2023-08-06T02:24:07;2.90;;;2.53;;
30133;SDS011;16946;49.984;10.672;2023-08-06T02:24:37;3.70;;;3.13;;
30133;SDS011;16946;49.984;10.672;2023-08-06T02:25:08;3.17;;;2.53;;
30133;SDS011;16946;49.984;10.672;2023-08-06T02:25:39;3.17;;;2.80;;
30133;SDS011;16946;49.984;10.672;2023-08-06T02:26:09;3.30;;;2.80;;
30133;SDS011;16946;49.984;10.672;2023-08-06T02:26:40;3.13;;;2.53;;
30133;SDS011;16946;49.984;10.672;2023-08-06T02:27:10;5.40;;;3.43;;
30133;SDS011;16946;49.984;10.672;2023-08-06T02:27:41;2.93;;;2.63;;
30133;SDS011;16946;49.984;10.672;2023-08-06T02:28:11;2.67;;;2.47;;
30133;SDS011;16946;49.984;10.672;2023-08-06T02:28:42;2.87;;;2.67;;
30133;SDS011;16946;49.984;10.672;2023-08-06T02:29:12;4.10;;;2.83;;
30133;SDS011;16946;49.984;10.672;2023-08-06T02:29:43;3.00;;;2.80;;
30133;SDS011;16946;49.984;10.672;2023-08-06T02:30:14;3.03;;;2.72;;
30133;SDS011;16946;49.984;10.672;2023-08-06T02:30:51;3.10;;;2.77;;
30133;SDS011;16946;49.984;10.672;2023-08-06T02:31:22;4.25;;;2.85;;
30133;SDS011;16946;49.984;10.672;2023-08-06T02:31:52;3.60;;;2.73;;
30133;SDS011;16946;49.984;10.672;2023-08-06T02:32:23;3.37;;;2.57;;
30133;SDS011;16946;49.984;10.672;2023-08-06T02:32:54;3.00;;;2.70;;
30133;SDS011;16946;49.984;10.672;2023-08-06T02:33:24;3.17;;;2.53;;
30133;SDS011;16946;49.984;10.672;2023-08-06T02:33:55;4.23;;;2.97;;
30133;SDS011;16946;49.984;10.672;2023-08-06T02:34:27;3.03;;;2.58;;
30133;SDS011;16946;49.984;10.672;2023-08-06T02:34:57;3.83;;;2.60;;
30133;SDS011;16946;49.984;10.672;2023-08-06T02:35:28;5.57;;;2.87;;
30133;SDS011;16946;49.984;10.672;2023-08-06T02:36:02;3.90;;;2.60;;
30133;SDS011;16946;49.984;10.672;2023-08-06T02:36:36;5.35;;;2.50;;
30133;SDS011;16946;49.984;10.672;2023-08-06T02:37:06;2.60;;;2.17;;
30133;SDS011;16946;49.984;10.672;2023-08-06T02:37:37;4.30;;;2.70;;
30133;SDS011;16946;49.984;10.672;2023-08-06T02:38:08;2.93;;;2.20;;
30133;SDS011;16946;49.984;10.672;2023-08-06T02:38:38;2.67;;;1.97;;
30133;SDS011;16946;49.984;10.672;2023-08-06T02:39:09;2.73;;;2.40;;
30133;SDS011;16946;49.984;10.672;2023-08-06T02:39:39;3.70;;;2.30;;
30133;SDS011;16946;49.984;10.672;2023-08-06T02:40:10;3.50;;;2.80;;
30133;SDS011;16946;49.984;10.672;2023-08-06T02:40:44;3.50;;;2.67;;
30133;SDS011;16946;49.984;10.672;2023-08-06T02:41:16;5.25;;;2.38;;
30133;SDS011;16946;49.984;10.672;2023-08-06T02:41:46;2.80;;;2.60;;
30133;SDS011;16946;49.984;10.672;2023-08-06T02:42:17;2.50;;;2.28;;
30133;SDS011;16946;49.984;10.672;2023-08-06T02:42:48;3.33;;;2.53;;
30133;SDS011;16946;49.984;10.672;2023-08-06T02:43:18;3.70;;;2.57;;
30133;SDS011;16946;49.984;10.672;2023-08-06T02:43:49;3.43;;;2.57;;
30133;SDS011;16946;49.984;10.672;2023-08-06T02:44:19;4.87;;;2.80;;
30133;SDS011;16946;49.984;10.672;2023-08-06T02:44:50;4.37;;;2.10;;
30133;SDS011;16946;49.984;10.672;2023-08-06T02:45:21;3.20;;;2.80;;
30133;SDS011;16946;49.984;10.672;2023-08-06T02:45:51;6.00;;;2.40;;
30133;SDS011;16946;49.984;10.672;2023-08-06T02:46:22;2.80;;;2.60;;
30133;SDS011;16946;49.984;10.672;2023-08-06T02:46:52;3.10;;;2.80;;
30133;SDS011;16946;49.984;10.672;2023-08-06T02:47:23;2.90;;;2.50;;
30133;SDS011;16946;49.984;10.672;2023-08-06T02:47:53;4.03;;;2.30;;
30133;SDS011;16946;49.984;10.672;2023-08-06T02:48:24;3.33;;;2.30;;
30133;SDS011;16946;49.984;10.672;2023-08-06T02:48:55;3.60;;;2.33;;
30133;SDS011;16946;49.984;10.672;2023-08-06T02:49:25;2.80;;;2.20;;
30133;SDS011;16946;49.984;10.672;2023-08-06T02:49:56;2.77;;;2.20;;
30133;SDS011;16946;49.984;10.672;2023-08-06T02:50:26;8.00;;;2.30;;
30133;SDS011;16946;49.984;10.672;2023-08-06T02:50:57;2.43;;;1.97;;
30133;SDS011;16946;49.984;10.672;2023-08-06T02:51:29;2.50;;;2.30;;
30133;SDS011;16946;49.984;10.672;2023-08-06T02:51:59;3.10;;;2.50;;
30133;SDS011;16946;49.984;10.672;2023-08-06T02:52:30;2.83;;;2.00;;
30133;SDS011;16946;49.984;10.672;2023-08-06T02:53:00;2.40;;;2.20;;
30133;SDS011;16946;49.984;10.672;2023-08-06T02:53:31;2.30;;;2.10;;
30133;SDS011;16946;49.984;10.672;2023-08-06T02:54:02;3.67;;;2.77;;
30133;SDS011;16946;49.984;10.672;2023-08-06T02:54:32;4.53;;;2.30;;
30133;SDS011;16946;49.984;10.672;2023-08-06T02:55:03;3.03;;;2.13;;
30133;SDS011;16946;49.984;10.672;2023-08-06T02:55:34;3.53;;;2.30;;
30133;SDS011;16946;49.984;10.672;2023-08-06T02:56:05;3.35;;;2.63;;
30133;SDS011;16946;49.984;10.672;2023-08-06T02:56:36;3.23;;;2.43;;
30133;SDS011;16946;49.984;10.672;2023-08-06T02:57:06;2.80;;;2.30;;
30133;SDS011;16946;49.984;10.672;2023-08-06T02:57:37;6.10;;;2.00;;
30133;SDS011;16946;49.984;10.672;2023-08-06T02:58:07;3.90;;;2.67;;
30133;SDS011;16946;49.984;10.672;2023-08-06T02:58:38;2.87;;;2.30;;
30133;SDS011;16946;49.984;10.672;2023-08-06T02:59:08;4.43;;;2.20;;
30133;SDS011;16946;49.984;10.672;2023-08-06T02:59:39;3.03;;;2.30;;
30133;SDS011;16946;49.984;10.672;2023-08-06T03:00:09;2.50;;;2.23;;
30133;SDS011;16946;49.984;10.672;2023-08-06T03:00:41;2.30;;;2.10;;
30133;SDS011;16946;49.984;10.672;2023-08-06T03:01:13;4.18;;;2.30;;
30133;SDS011;16946;49.984;10.672;2023-08-06T03:01:44;3.05;;;2.53;;
30133;SDS011;16946;49.984;10.672;2023-08-06T03:02:14;2.30;;;2.10;;
30133;SDS011;16946;49.984;10.672;2023-08-06T03:02:45;4.70;;;2.53;;
30133;SDS011;16946;49.984;10.672;2023-08-06T03:03:15;3.27;;;2.17;;
30133;SDS011;16946;49.984;10.672;2023-08-06T03:03:46;3.97;;;2.37;;
30133;SDS011;16946;49.984;10.672;2023-08-06T03:04:16;2.27;;;2.07;;
30133;SDS011;16946;49.984;10.672;2023-08-06T03:04:48;2.33;;;2.00;;
30133;SDS011;16946;49.984;10.672;2023-08-06T03:05:18;2.30;;;2.03;;
30133;SDS011;16946;49.984;10.672;2023-08-06T03:05:52;3.40;;;2.13;;
30133;SDS011;16946;49.984;10.672;2023-08-06T03:06:23;6.03;;;2.53;;
30133;SDS011;16946;49.984;10.672;2023-08-06T03:06:54;2.53;;;2.33;;
30133;SDS011;16946;49.984;10.672;2023-08-06T03:07:25;2.60;;;2.40;;
30133;SDS011;16946;49.984;10.672;2023-08-06T03:07:55;3.07;;;2.00;;
30133;SDS011;16946;49.984;10.672;2023-08-06T03:08:26;4.07;;;2.27;;
30133;SDS011;16946;49.984;10.672;2023-08-06T03:08:56;3.33;;;2.23;;
30133;SDS011;16946;49.984;10.672;2023-08-06T03:09:27;2.63;;;2.07;;
30133;SDS011;16946;49.984;10.672;2023-08-06T03:09:57;2.23;;;2.03;;
30133;SDS011;16946;49.984;10.672;2023-08-06T03:10:28;4.77;;;2.43;;